sensor_id;sensor_type;location;lat;lon;timestamp;pressure;altitude;pressure_sealevel;temperature;humidity
6134;BME280;3098;42.678;23.364;2022-10-26T00:01:06;95374.22;;;15.68;94.44
6134;BME280;3098;42.678;23.364;2022-10-26T00:03:34;95321.13;;;15.37;94.48
6134;BME280;3098;42.678;23.364;2022-10-26T00:06:04;95345.41;;;15.52;94.13
6134;BME280;3098;42.678;23.364;2022-10-26T00:08:33;95356.28;;;15.47;94.50
6134;BME280;3098;42.678;23.364;2022-10-26T00:11:01;95340.94;;;15.36;94.54
6134;BME280;3098;42.678;23.364;2022-10-26T00:13:27;95353.78;;;15.42;94.61
6134;BME280;3098;42.678;23.364;2022-10-26T00:15:55;95346.44;;;15.39;95.00
6134;BME280;3098;42.678;23.364;2022-10-26T00:18:23;95345.91;;;15.25;95.16
6134;BME280;3098;42.678;23.364;2022-10-26T00:20:51;95368.75;;;15.43;95.56
6134;BME280;3098;42.678;23.364;2022-10-26T00:23:18;95365.28;;;15.43;95.52
6134;BME280;3098;42.678;23.364;2022-10-26T00:25:54;95352.28;;;15.33;95.78
6134;BME280;3098;42.678;23.364;2022-10-26T00:28:21;95364.69;;;15.37;96.25
6134;BME280;3098;42.678;23.364;2022-10-26T00:30:48;95343.09;;;15.22;96.08
6134;BME280;3098;42.678;23.364;2022-10-26T00:33:17;95278.38;;;14.75;95.80
6134;BME280;3098;42.678;23.364;2022-10-26T00:35:46;95373.56;;;15.29;95.58
6134;BME280;3098;42.678;23.364;2022-10-26T00:38:14;95367.34;;;15.17;95.86
6134;BME280;3098;42.678;23.364;2022-10-26T00:40:42;95314.47;;;14.81;95.86
6134;BME280;3098;42.678;23.364;2022-10-26T00:43:15;95362.94;;;15.21;95.62
6134;BME280;3098;42.678;23.364;2022-10-26T00:45:43;95313.19;;;14.87;95.72
6134;BME280;3098;42.678;23.364;2022-10-26T00:48:17;95351.72;;;15.07;95.84
6134;BME280;3098;42.678;23.364;2022-10-26T00:50:47;95350.34;;;15.01;95.95
6134;BME280;3098;42.678;23.364;2022-10-26T00:53:14;95353.06;;;14.92;96.13
6134;BME280;3098;42.678;23.364;2022-10-26T00:55:45;95352.41;;;14.95;96.43
6134;BME280;3098;42.678;23.364;2022-10-26T00:58:15;95347.91;;;14.87;96.31
6134;BME280;3098;42.678;23.364;2022-10-26T01:00:43;95346.63;;;14.84;96.75
6134;BME280;3098;42.678;23.364;2022-10-26T01:03:10;95316.59;;;14.67;96.96
6134;BME280;3098;42.678;23.364;2022-10-26T01:05:41;95357.16;;;14.89;97.05
6134;BME280;3098;42.678;23.364;2022-10-26T01:08:09;95362.66;;;14.84;97.50
6134;BME280;3098;42.678;23.364;2022-10-26T01:10:37;95361.94;;;14.75;98.50
6134;BME280;3098;42.678;23.364;2022-10-26T01:13:06;95339.44;;;14.56;98.55
6134;BME280;3098;42.678;23.364;2022-10-26T01:15:45;95358.69;;;14.70;98.88
6134;BME280;3098;42.678;23.364;2022-10-26T01:18:20;95313.59;;;14.39;99.10
6134;BME280;3098;42.678;23.364;2022-10-26T01:23:55;95255.88;;;13.88;99.26
6134;BME280;3098;42.678;23.364;2022-10-26T01:26:51;95318.97;;;14.22;99.69
6134;BME280;3098;42.678;23.364;2022-10-26T01:32:32;95354.22;;;14.45;100.00
6134;BME280;3098;42.678;23.364;2022-10-26T01:35:05;95358.50;;;14.37;100.00
6134;BME280;3098;42.678;23.364;2022-10-26T01:37:37;95354.13;;;14.32;100.00
6134;BME280;3098;42.678;23.364;2022-10-26T01:40:10;95294.09;;;14.01;100.00
6134;BME280;3098;42.678;23.364;2022-10-26T01:42:44;95336.25;;;14.24;100.00
6134;BME280;3098;42.678;23.364;2022-10-26T01:45:14;95327.16;;;14.17;100.00
6134;BME280;3098;42.678;23.364;2022-10-26T01:47:45;95236.25;;;13.46;100.00
6134;BME280;3098;42.678;23.364;2022-10-26T01:50:14;95338.47;;;14.05;100.00
6134;BME280;3098;42.678;23.364;2022-10-26T01:52:43;95323.13;;;13.94;100.00
6134;BME280;3098;42.678;23.364;2022-10-26T01:55:38;95308.47;;;13.79;100.00
6134;BME280;3098;42.678;23.364;2022-10-26T01:58:14;95327.25;;;13.82;100.00
6134;BME280;3098;42.678;23.364;2022-10-26T02:00:53;95300.34;;;13.58;100.00
6134;BME280;3098;42.678;23.364;2022-10-26T02:03:30;95338.50;;;13.97;100.00
6134;BME280;3098;42.678;23.364;2022-10-26T02:06:13;95336.47;;;13.94;100.00
6134;BME280;3098;42.678;23.364;2022-10-26T02:08:54;95356.44;;;13.88;100.00
6134;BME280;3098;42.678;23.364;2022-10-26T02:11:31;95345.25;;;13.94;100.00
6134;BME280;3098;42.678;23.364;2022-10-26T02:14:09;95352.34;;;13.90;100.00
6134;BME280;3098;42.678;23.364;2022-10-26T02:16:44;95357.81;;;13.94;100.00
6134;BME280;3098;42.678;23.364;2022-10-26T02:19:32;95317.91;;;13.59;100.00
6134;BME280;3098;42.678;23.364;2022-10-26T02:22:07;95357.09;;;13.50;100.00
6134;BME280;3098;42.678;23.364;2022-10-26T02:24:37;95331.81;;;12.88;100.00
6134;BME280;3098;42.678;23.364;2022-10-26T02:27:08;95351.84;;;12.77;100.00
6134;BME280;3098;42.678;23.364;2022-10-26T02:29:38;95352.69;;;12.55;100.00
6134;BME280;3098;42.678;23.364;2022-10-26T02:32:08;95315.81;;;12.14;100.00
6134;BME280;3098;42.678;23.364;2022-10-26T02:34:42;95362.47;;;12.29;100.00
6134;BME280;3098;42.678;23.364;2022-10-26T02:37:12;95337.47;;;11.99;100.00
6134;BME280;3098;42.678;23.364;2022-10-26T02:39:41;95373.47;;;12.05;100.00
6134;BME280;3098;42.678;23.364;2022-10-26T02:42:09;95327.75;;;11.72;100.00
6134;BME280;3098;42.678;23.364;2022-10-26T02:44:41;95337.03;;;11.75;100.00
6134;BME280;3098;42.678;23.364;2022-10-26T02:47:10;95341.06;;;11.72;100.00
6134;BME280;3098;42.678;23.364;2022-10-26T02:49:39;95359.03;;;11.97;100.00
6134;BME280;3098;42.678;23.364;2022-10-26T02:52:10;95329.16;;;11.70;100.00
6134;BME280;3098;42.678;23.364;2022-10-26T02:54:47;95372.91;;;11.86;100.00
6134;BME280;3098;42.678;23.364;2022-10-26T02:57:18;95382.88;;;11.80;100.00
6134;BME280;3098;42.678;23.364;2022-10-26T02:59:46;95263.56;;;11.26;100.00
6134;BME280;3098;42.678;23.364;2022-10-26T03:02:16;95332.72;;;11.65;100.00
6134;BME280;3098;42.678;23.364;2022-10-26T03:04:45;95376.69;;;11.71;100.00
6134;BME280;3098;42.678;23.364;2022-10-26T03:07:19;95391.44;;;11.64;100.00
6134;BME280;3098;42.678;23.364;2022-10-26T03:09:47;95384.06;;;11.74;100.00
6134;BME280;3098;42.678;23.364;2022-10-26T03:12:14;95363.63;;;11.61;100.00
6134;BME280;3098;42.678;23.364;2022-10-26T03:14:41;95375.81;;;11.62;100.00
6134;BME280;3098;42.678;23.364;2022-10-26T03:17:08;95383.38;;;11.69;100.00
6134;BME280;3098;42.678;23.364;2022-10-26T03:19:35;95385.53;;;11.67;100.00
6134;BME280;3098;42.678;23.364;2022-10-26T03:22:04;95376.75;;;11.58;100.00
6134;BME280;3098;42.678;23.364;2022-10-26T03:24:32;95400.00;;;11.74;100.00
6134;BME280;3098;42.678;23.364;2022-10-26T03:26:59;95398.91;;;11.75;100.00
6134;BME280;3098;42.678;23.364;2022-10-26T03:29:26;95344.56;;;11.37;100.00
6134;BME280;3098;42.678;23.364;2022-10-26T03:31:53;95363.13;;;11.59;100.00
6134;BME280;3098;42.678;23.364;2022-10-26T03:34:20;95326.22;;;11.49;100.00
6134;BME280;3098;42.678;23.364;2022-10-26T03:36:48;95405.31;;;11.96;100.00
6134;BME280;3098;42.678;23.364;2022-10-26T03:39:16;95409.59;;;12.06;100.00
6134;BME280;3098;42.678;23.364;2022-10-26T03:41:44;95377.81;;;12.01;100.00
6134;BME280;3098;42.678;23.364;2022-10-26T03:44:12;95249.31;;;11.22;100.00
6134;BME280;3098;42.678;23.364;2022-10-26T03:46:39;95405.09;;;12.37;100.00
6134;BME280;3098;42.678;23.364;2022-10-26T03:49:06;95397.28;;;12.49;100.00
6134;BME280;3098;42.678;23.364;2022-10-26T03:51:33;95334.53;;;12.09;100.00
6134;BME280;3098;42.678;23.364;2022-10-26T03:54:01;95398.91;;;12.59;100.00
6134;BME280;3098;42.678;23.364;2022-10-26T03:56:29;95374.28;;;12.45;100.00
6134;BME280;3098;42.678;23.364;2022-10-26T03:58:57;95402.69;;;12.66;100.00
6134;BME280;3098;42.678;23.364;2022-10-26T04:01:24;95403.94;;;12.69;100.00
6134;BME280;3098;42.678;23.364;2022-10-26T04:03:52;95402.06;;;12.69;100.00
6134;BME280;3098;42.678;23.364;2022-10-26T04:06:19;95384.63;;;12.55;100.00
6134;BME280;3098;42.678;23.364;2022-10-26T04:08:46;95400.78;;;12.58;100.00
6134;BME280;3098;42.678;23.364;2022-10-26T04:11:14;95408.31;;;12.65;100.00
6134;BME280;3098;42.678;23.364;2022-10-26T04:13:42;95383.22;;;12.57;100.00
6134;BME280;3098;42.678;23.364;2022-10-26T04:16:09;95414.56;;;12.69;100.00
6134;BME280;3098;42.678;23.364;2022-10-26T04:18:37;95369.84;;;12.40;100.00
6134;BME280;3098;42.678;23.364;2022-10-26T04:21:04;95400.16;;;12.61;100.00
6134;BME280;3098;42.678;23.364;2022-10-26T04:23:31;95393.41;;;12.55;100.00
6134;BME280;3098;42.678;23.364;2022-10-26T04:25:59;95411.88;;;12.60;100.00
6134;BME280;3098;42.678;23.364;2022-10-26T04:28:27;95411.53;;;12.45;100.00
6134;BME280;3098;42.678;23.364;2022-10-26T04:30:57;95418.66;;;12.36;100.00
6134;BME280;3098;42.678;23.364;2022-10-26T04:33:24;95409.13;;;12.35;100.00
6134;BME280;3098;42.678;23.364;2022-10-26T04:35:58;95425.22;;;12.30;100.00
6134;BME280;3098;42.678;23.364;2022-10-26T04:38:26;95401.19;;;12.13;100.00
6134;BME280;3098;42.678;23.364;2022-10-26T04:40:53;95405.59;;;12.17;100.00
6134;BME280;3098;42.678;23.364;2022-10-26T04:43:22;95421.03;;;12.37;100.00
6134;BME280;3098;42.678;23.364;2022-10-26T04:45:53;95414.47;;;12.43;100.00
6134;BME280;3098;42.678;23.364;2022-10-26T04:48:22;95342.34;;;12.05;100.00
6134;BME280;3098;42.678;23.364;2022-10-26T04:50:50;95416.31;;;12.65;100.00
6134;BME280;3098;42.678;23.364;2022-10-26T04:53:17;95428.72;;;12.78;100.00
6134;BME280;3098;42.678;23.364;2022-10-26T04:55:44;95415.72;;;12.77;100.00
6134;BME280;3098;42.678;23.364;2022-10-26T04:58:12;95419.63;;;12.79;100.00
6134;BME280;3098;42.678;23.364;2022-10-26T05:00:39;95433.31;;;13.03;100.00
6134;BME280;3098;42.678;23.364;2022-10-26T05:03:07;95443.84;;;13.08;100.00
6134;BME280;3098;42.678;23.364;2022-10-26T05:05:36;95435.00;;;13.30;100.00
6134;BME280;3098;42.678;23.364;2022-10-26T05:08:04;95423.72;;;13.42;100.00
6134;BME280;3098;42.678;23.364;2022-10-26T05:10:31;95435.47;;;13.83;100.00
6134;BME280;3098;42.678;23.364;2022-10-26T05:12:59;95429.16;;;14.14;100.00
6134;BME280;3098;42.678;23.364;2022-10-26T05:15:27;95441.91;;;13.91;100.00
6134;BME280;3098;42.678;23.364;2022-10-26T05:17:55;95427.13;;;13.08;100.00
6134;BME280;3098;42.678;23.364;2022-10-26T05:20:23;95414.78;;;12.81;100.00
6134;BME280;3098;42.678;23.364;2022-10-26T05:22:57;95446.09;;;13.23;100.00
6134;BME280;3098;42.678;23.364;2022-10-26T05:25:26;95421.19;;;13.45;100.00
6134;BME280;3098;42.678;23.364;2022-10-26T05:27:56;95376.34;;;13.81;100.00
6134;BME280;3098;42.678;23.364;2022-10-26T05:30:24;95313.81;;;13.62;100.00
6134;BME280;3098;42.678;23.364;2022-10-26T05:32:54;95446.13;;;14.01;100.00
6134;BME280;3098;42.678;23.364;2022-10-26T05:35:22;95460.88;;;13.90;100.00
6134;BME280;3098;42.678;23.364;2022-10-26T05:37:50;95458.19;;;14.15;100.00
6134;BME280;3098;42.678;23.364;2022-10-26T05:40:20;95451.75;;;14.08;100.00
6134;BME280;3098;42.678;23.364;2022-10-26T05:42:47;95451.09;;;14.45;100.00
6134;BME280;3098;42.678;23.364;2022-10-26T05:45:15;95446.28;;;15.14;98.38
6134;BME280;3098;42.678;23.364;2022-10-26T05:47:44;95478.91;;;15.78;96.22
6134;BME280;3098;42.678;23.364;2022-10-26T05:50:12;95466.38;;;17.38;89.96
6134;BME280;3098;42.678;23.364;2022-10-26T05:52:40;95435.16;;;18.09;81.32
6134;BME280;3098;42.678;23.364;2022-10-26T05:55:09;95474.66;;;18.80;79.46
6134;BME280;3098;42.678;23.364;2022-10-26T05:57:39;95467.19;;;19.36;76.57
6134;BME280;3098;42.678;23.364;2022-10-26T06:00:08;95492.59;;;20.24;72.05
6134;BME280;3098;42.678;23.364;2022-10-26T06:02:42;95405.59;;;20.00;68.59
6134;BME280;3098;42.678;23.364;2022-10-26T06:05:15;95473.59;;;20.74;65.88
6134;BME280;3098;42.678;23.364;2022-10-26T06:07:45;95500.28;;;22.00;60.66
6134;BME280;3098;42.678;23.364;2022-10-26T06:10:13;95487.66;;;20.45;64.39
6134;BME280;3098;42.678;23.364;2022-10-26T06:12:42;95468.72;;;20.83;64.02
6134;BME280;3098;42.678;23.364;2022-10-26T06:15:12;95501.31;;;21.65;61.96
6134;BME280;3098;42.678;23.364;2022-10-26T06:17:49;95515.63;;;22.52;58.53
6134;BME280;3098;42.678;23.364;2022-10-26T06:20:32;95446.19;;;22.26;58.04
6134;BME280;3098;42.678;23.364;2022-10-26T06:23:18;95509.19;;;22.63;58.65
6134;BME280;3098;42.678;23.364;2022-10-26T06:25:55;95490.53;;;20.97;62.02
6134;BME280;3098;42.678;23.364;2022-10-26T06:28:33;95477.56;;;19.18;70.46
6134;BME280;3098;42.678;23.364;2022-10-26T06:31:07;95384.78;;;19.43;69.85
6134;BME280;3098;42.678;23.364;2022-10-26T06:33:36;95375.59;;;21.38;60.36
6134;BME280;3098;42.678;23.364;2022-10-26T06:36:16;95504.34;;;23.16;57.39
6134;BME280;3098;42.678;23.364;2022-10-26T06:38:45;95503.88;;;24.06;54.25
6134;BME280;3098;42.678;23.364;2022-10-26T06:41:15;95487.81;;;23.72;54.23
6134;BME280;3098;42.678;23.364;2022-10-26T06:43:45;95502.88;;;23.73;54.54
6134;BME280;3098;42.678;23.364;2022-10-26T06:46:24;95516.31;;;21.37;60.80
6134;BME280;3098;42.678;23.364;2022-10-26T06:49:01;95512.94;;;21.20;61.56
6134;BME280;3098;42.678;23.364;2022-10-26T06:51:35;95515.19;;;20.96;63.24
6134;BME280;3098;42.678;23.364;2022-10-26T06:54:10;95525.28;;;21.22;64.13
6134;BME280;3098;42.678;23.364;2022-10-26T06:56:40;95502.19;;;22.59;57.85
6134;BME280;3098;42.678;23.364;2022-10-26T06:59:14;95477.16;;;22.65;57.37
6134;BME280;3098;42.678;23.364;2022-10-26T07:01:43;95533.16;;;21.07;64.03
6134;BME280;3098;42.678;23.364;2022-10-26T07:04:10;95438.72;;;20.62;64.18
6134;BME280;3098;42.678;23.364;2022-10-26T07:06:37;95492.72;;;23.12;58.48
6134;BME280;3098;42.678;23.364;2022-10-26T07:09:04;95508.72;;;23.31;56.04
6134;BME280;3098;42.678;23.364;2022-10-26T07:11:32;95507.50;;;22.18;59.92
6134;BME280;3098;42.678;23.364;2022-10-26T07:13:58;95530.50;;;21.56;62.38
6134;BME280;3098;42.678;23.364;2022-10-26T07:16:27;95508.75;;;21.98;61.54
6134;BME280;3098;42.678;23.364;2022-10-26T07:18:54;95510.31;;;22.62;60.10
6134;BME280;3098;42.678;23.364;2022-10-26T07:21:21;95502.34;;;24.08;56.30
6134;BME280;3098;42.678;23.364;2022-10-26T07:23:48;95523.16;;;24.73;54.05
6134;BME280;3098;42.678;23.364;2022-10-26T07:26:16;95436.41;;;24.83;52.00
6134;BME280;3098;42.678;23.364;2022-10-26T07:28:47;95534.94;;;25.40;52.85
6134;BME280;3098;42.678;23.364;2022-10-26T07:31:15;95528.34;;;25.13;53.39
6134;BME280;3098;42.678;23.364;2022-10-26T07:33:44;95519.41;;;25.12;51.92
6134;BME280;3098;42.678;23.364;2022-10-26T07:36:12;95468.97;;;24.80;51.98
6134;BME280;3098;42.678;23.364;2022-10-26T07:38:40;95456.31;;;24.19;54.06
6134;BME280;3098;42.678;23.364;2022-10-26T07:41:07;95525.28;;;25.92;50.20
6134;BME280;3098;42.678;23.364;2022-10-26T07:43:34;95517.16;;;25.64;49.78
6134;BME280;3098;42.678;23.364;2022-10-26T07:46:01;95519.47;;;25.90;50.02
6134;BME280;3098;42.678;23.364;2022-10-26T07:48:29;95504.72;;;25.31;49.57
6134;BME280;3098;42.678;23.364;2022-10-26T07:50:59;95498.84;;;26.00;48.45
6134;BME280;3098;42.678;23.364;2022-10-26T07:53:26;95497.72;;;25.94;47.67
6134;BME280;3098;42.678;23.364;2022-10-26T07:55:54;95510.16;;;25.66;48.68
6134;BME280;3098;42.678;23.364;2022-10-26T07:58:21;95475.91;;;26.22;46.91
6134;BME280;3098;42.678;23.364;2022-10-26T08:00:51;95514.94;;;26.81;46.48
6134;BME280;3098;42.678;23.364;2022-10-26T08:03:19;95504.63;;;27.13;44.50
6134;BME280;3098;42.678;23.364;2022-10-26T08:05:47;95505.38;;;27.21;44.78
6134;BME280;3098;42.678;23.364;2022-10-26T08:08:17;95515.91;;;27.19;43.96
6134;BME280;3098;42.678;23.364;2022-10-26T08:10:45;95505.53;;;27.55;43.43
6134;BME280;3098;42.678;23.364;2022-10-26T08:13:13;95492.72;;;27.52;43.21
6134;BME280;3098;42.678;23.364;2022-10-26T08:15:40;95503.13;;;26.18;45.47
6134;BME280;3098;42.678;23.364;2022-10-26T08:18:07;95510.69;;;26.66;43.99
6134;BME280;3098;42.678;23.364;2022-10-26T08:20:34;95516.56;;;27.33;43.20
6134;BME280;3098;42.678;23.364;2022-10-26T08:23:02;95500.25;;;26.54;43.60
6134;BME280;3098;42.678;23.364;2022-10-26T08:25:32;95516.63;;;26.43;44.22
6134;BME280;3098;42.678;23.364;2022-10-26T08:28:01;95510.94;;;25.49;46.05
6134;BME280;3098;42.678;23.364;2022-10-26T08:30:29;95452.69;;;25.71;45.38
6134;BME280;3098;42.678;23.364;2022-10-26T08:33:00;95513.38;;;26.80;43.98
6134;BME280;3098;42.678;23.364;2022-10-26T08:35:28;95502.91;;;26.71;43.37
6134;BME280;3098;42.678;23.364;2022-10-26T08:37:55;95505.56;;;26.89;43.00
6134;BME280;3098;42.678;23.364;2022-10-26T08:40:25;95479.50;;;26.92;43.92
6134;BME280;3098;42.678;23.364;2022-10-26T08:42:59;95451.56;;;26.84;42.04
6134;BME280;3098;42.678;23.364;2022-10-26T08:45:31;95429.94;;;26.52;42.23
6134;BME280;3098;42.678;23.364;2022-10-26T08:48:06;95496.44;;;27.17;42.35
6134;BME280;3098;42.678;23.364;2022-10-26T08:50:42;95498.91;;;27.96;41.28
6134;BME280;3098;42.678;23.364;2022-10-26T08:53:16;95423.53;;;27.38;38.26
6134;BME280;3098;42.678;23.364;2022-10-26T08:55:47;95492.56;;;27.14;39.37
6134;BME280;3098;42.678;23.364;2022-10-26T08:58:21;95518.25;;;27.72;39.22
6134;BME280;3098;42.678;23.364;2022-10-26T09:00:50;95515.63;;;29.03;36.62
6134;BME280;3098;42.678;23.364;2022-10-26T09:03:17;95478.50;;;28.79;35.82
6134;BME280;3098;42.678;23.364;2022-10-26T09:05:54;95433.41;;;26.56;39.70
6134;BME280;3098;42.678;23.364;2022-10-26T09:08:31;95494.72;;;27.40;39.83
6134;BME280;3098;42.678;23.364;2022-10-26T09:11:07;95366.91;;;26.64;39.07
6134;BME280;3098;42.678;23.364;2022-10-26T09:13:50;95509.38;;;27.61;38.63
6134;BME280;3098;42.678;23.364;2022-10-26T09:16:27;95514.72;;;27.75;39.27
6134;BME280;3098;42.678;23.364;2022-10-26T09:19:17;95507.53;;;27.91;38.00
6134;BME280;3098;42.678;23.364;2022-10-26T09:21:52;95482.47;;;28.07;37.04
6134;BME280;3098;42.678;23.364;2022-10-26T09:24:29;95491.84;;;27.62;37.84
6134;BME280;3098;42.678;23.364;2022-10-26T09:27:04;95490.22;;;27.16;38.46
6134;BME280;3098;42.678;23.364;2022-10-26T09:29:38;95478.16;;;26.41;39.48
6134;BME280;3098;42.678;23.364;2022-10-26T09:32:12;95496.91;;;26.14;40.89
6134;BME280;3098;42.678;23.364;2022-10-26T09:34:43;95494.63;;;25.85;40.60
6134;BME280;3098;42.678;23.364;2022-10-26T09:37:15;95508.38;;;26.64;38.69
6134;BME280;3098;42.678;23.364;2022-10-26T09:39:50;95496.47;;;26.26;40.17
6134;BME280;3098;42.678;23.364;2022-10-26T09:42:21;95449.50;;;27.50;37.33
6134;BME280;3098;42.678;23.364;2022-10-26T09:44:56;95490.97;;;27.72;36.98
6134;BME280;3098;42.678;23.364;2022-10-26T09:47:30;95501.06;;;27.27;36.92
6134;BME280;3098;42.678;23.364;2022-10-26T09:50:05;95474.09;;;26.85;36.75
6134;BME280;3098;42.678;23.364;2022-10-26T09:52:34;95476.88;;;26.67;37.75
6134;BME280;3098;42.678;23.364;2022-10-26T09:55:01;95465.22;;;27.32;35.66
6134;BME280;3098;42.678;23.364;2022-10-26T09:57:30;95489.59;;;26.95;36.04
6134;BME280;3098;42.678;23.364;2022-10-26T09:59:59;95426.75;;;26.64;36.70
6134;BME280;3098;42.678;23.364;2022-10-26T10:02:34;95433.91;;;27.03;36.62
6134;BME280;3098;42.678;23.364;2022-10-26T10:05:02;95446.44;;;27.85;35.48
6134;BME280;3098;42.678;23.364;2022-10-26T10:07:46;95482.75;;;26.62;35.96
6134;BME280;3098;42.678;23.364;2022-10-26T10:10:16;95417.81;;;25.06;37.20
6134;BME280;3098;42.678;23.364;2022-10-26T10:12:45;95431.38;;;25.66;36.52
6134;BME280;3098;42.678;23.364;2022-10-26T10:15:24;95381.31;;;24.65;37.87
6134;BME280;3098;42.678;23.364;2022-10-26T10:17:52;95419.72;;;25.73;36.54
6134;BME280;3098;42.678;23.364;2022-10-26T10:20:28;95464.16;;;26.46;36.00
6134;BME280;3098;42.678;23.364;2022-10-26T10:22:57;95464.63;;;26.27;36.68
6134;BME280;3098;42.678;23.364;2022-10-26T10:25:33;95471.28;;;26.05;37.70
6134;BME280;3098;42.678;23.364;2022-10-26T10:28:01;95471.69;;;25.01;39.53
6134;BME280;3098;42.678;23.364;2022-10-26T10:30:32;95463.91;;;26.05;38.56
6134;BME280;3098;42.678;23.364;2022-10-26T10:33:07;95459.63;;;26.15;36.73
6134;BME280;3098;42.678;23.364;2022-10-26T10:35:38;95432.88;;;24.69;38.20
6134;BME280;3098;42.678;23.364;2022-10-26T10:38:12;95453.41;;;24.70;40.04
6134;BME280;3098;42.678;23.364;2022-10-26T10:40:50;95450.31;;;24.78;39.32
6134;BME280;3098;42.678;23.364;2022-10-26T10:43:20;95371.59;;;23.53;41.16
6134;BME280;3098;42.678;23.364;2022-10-26T10:45:52;95428.59;;;24.71;39.80
6134;BME280;3098;42.678;23.364;2022-10-26T10:48:29;95456.59;;;25.00;38.95
6134;BME280;3098;42.678;23.364;2022-10-26T10:50:59;95444.47;;;24.69;39.87
6134;BME280;3098;42.678;23.364;2022-10-26T10:53:33;95447.66;;;25.21;39.08
6134;BME280;3098;42.678;23.364;2022-10-26T10:56:17;95425.56;;;25.01;39.15
6134;BME280;3098;42.678;23.364;2022-10-26T10:58:54;95442.59;;;25.76;37.52
6134;BME280;3098;42.678;23.364;2022-10-26T11:01:35;95436.03;;;23.88;41.47
6134;BME280;3098;42.678;23.364;2022-10-26T11:04:26;95386.13;;;23.89;40.33
6134;BME280;3098;42.678;23.364;2022-10-26T11:06:59;95406.78;;;24.22;40.86
6134;BME280;3098;42.678;23.364;2022-10-26T11:09:30;95375.56;;;24.88;39.47
6134;BME280;3098;42.678;23.364;2022-10-26T11:12:00;95424.78;;;24.90;39.50
6134;BME280;3098;42.678;23.364;2022-10-26T11:14:32;95345.25;;;24.47;39.28
6134;BME280;3098;42.678;23.364;2022-10-26T11:17:05;95366.63;;;25.15;39.74
6134;BME280;3098;42.678;23.364;2022-10-26T11:19:39;95412.84;;;24.01;40.46
6134;BME280;3098;42.678;23.364;2022-10-26T11:22:13;95426.72;;;24.82;39.84
6134;BME280;3098;42.678;23.364;2022-10-26T11:24:43;95410.38;;;24.57;40.84
6134;BME280;3098;42.678;23.364;2022-10-26T11:27:15;95399.84;;;24.28;40.74
6134;BME280;3098;42.678;23.364;2022-10-26T11:29:48;95374.03;;;23.69;41.71
6134;BME280;3098;42.678;23.364;2022-10-26T11:32:22;95388.47;;;23.29;41.82
6134;BME280;3098;42.678;23.364;2022-10-26T11:34:54;95415.25;;;24.10;41.71
6134;BME280;3098;42.678;23.364;2022-10-26T11:37:28;95414.53;;;24.20;41.08
6134;BME280;3098;42.678;23.364;2022-10-26T11:40:02;95409.38;;;24.04;41.11
6134;BME280;3098;42.678;23.364;2022-10-26T11:42:37;95362.16;;;23.33;42.09
6134;BME280;3098;42.678;23.364;2022-10-26T11:45:12;95392.69;;;23.91;40.99
6134;BME280;3098;42.678;23.364;2022-10-26T11:47:50;95399.81;;;24.24;40.81
6134;BME280;3098;42.678;23.364;2022-10-26T11:50:21;95340.19;;;24.38;40.30
6134;BME280;3098;42.678;23.364;2022-10-26T11:52:52;95368.47;;;24.41;39.84
6134;BME280;3098;42.678;23.364;2022-10-26T11:55:28;95403.63;;;24.09;40.39
6134;BME280;3098;42.678;23.364;2022-10-26T11:57:57;95402.94;;;24.30;39.45
6134;BME280;3098;42.678;23.364;2022-10-26T12:00:29;95290.09;;;23.04;40.63
6134;BME280;3098;42.678;23.364;2022-10-26T12:03:07;95258.94;;;23.34;39.78
6134;BME280;3098;42.678;23.364;2022-10-26T12:05:43;95392.34;;;24.00;38.90
6134;BME280;3098;42.678;23.364;2022-10-26T12:08:17;95262.03;;;23.33;38.03
6134;BME280;3098;42.678;23.364;2022-10-26T12:10:50;95390.88;;;24.17;37.55
6134;BME280;3098;42.678;23.364;2022-10-26T12:13:25;95386.13;;;23.96;37.84
6134;BME280;3098;42.678;23.364;2022-10-26T12:16:05;95400.28;;;24.62;36.55
6134;BME280;3098;42.678;23.364;2022-10-26T12:18:41;95380.75;;;24.03;37.23
6134;BME280;3098;42.678;23.364;2022-10-26T12:21:19;95362.63;;;24.14;36.56
6134;BME280;3098;42.678;23.364;2022-10-26T12:23:54;95358.59;;;23.80;36.06
6134;BME280;3098;42.678;23.364;2022-10-26T12:26:38;95386.22;;;23.41;37.45
6134;BME280;3098;42.678;23.364;2022-10-26T12:29:28;95386.31;;;23.56;37.36
6134;BME280;3098;42.678;23.364;2022-10-26T12:31:56;95335.59;;;22.91;37.78
6134;BME280;3098;42.678;23.364;2022-10-26T12:35:03;95337.16;;;22.48;37.59
6134;BME280;3098;42.678;23.364;2022-10-26T12:37:50;95369.16;;;22.39;38.72
6134;BME280;3098;42.678;23.364;2022-10-26T12:40:38;95369.16;;;22.43;38.42
6134;BME280;3098;42.678;23.364;2022-10-26T12:43:34;95352.44;;;22.30;38.08
6134;BME280;3098;42.678;23.364;2022-10-26T12:52:40;95389.81;;;22.61;38.01
6134;BME280;3098;42.678;23.364;2022-10-26T12:55:41;95388.38;;;22.67;37.79
6134;BME280;3098;42.678;23.364;2022-10-26T13:01:43;95347.59;;;22.09;38.02
6134;BME280;3098;42.678;23.364;2022-10-26T13:07:22;95388.97;;;22.17;38.47
6134;BME280;3098;42.678;23.364;2022-10-26T13:09:59;95370.81;;;21.84;38.82
6134;BME280;3098;42.678;23.364;2022-10-26T13:12:33;95400.50;;;22.14;38.70
6134;BME280;3098;42.678;23.364;2022-10-26T13:15:04;95395.53;;;22.16;38.06
6134;BME280;3098;42.678;23.364;2022-10-26T13:17:33;95390.53;;;22.18;37.68
6134;BME280;3098;42.678;23.364;2022-10-26T13:20:04;95371.13;;;21.79;37.58
6134;BME280;3098;42.678;23.364;2022-10-26T13:22:32;95377.00;;;21.85;37.29
6134;BME280;3098;42.678;23.364;2022-10-26T13:25:21;95368.06;;;21.81;37.23
6134;BME280;3098;42.678;23.364;2022-10-26T13:28:00;95396.25;;;22.13;37.00
6134;BME280;3098;42.678;23.364;2022-10-26T13:30:41;95399.38;;;22.15;36.60
6134;BME280;3098;42.678;23.364;2022-10-26T13:33:21;95378.25;;;21.91;36.06
6134;BME280;3098;42.678;23.364;2022-10-26T13:35:52;95396.72;;;22.18;36.05
6134;BME280;3098;42.678;23.364;2022-10-26T13:38:24;95394.78;;;22.19;35.76
6134;BME280;3098;42.678;23.364;2022-10-26T13:41:03;95389.50;;;21.96;35.63
6134;BME280;3098;42.678;23.364;2022-10-26T13:43:32;95386.44;;;21.98;35.30
6134;BME280;3098;42.678;23.364;2022-10-26T13:46:03;95402.91;;;22.22;34.86
6134;BME280;3098;42.678;23.364;2022-10-26T13:48:38;95350.22;;;21.72;34.32
6134;BME280;3098;42.678;23.364;2022-10-26T13:51:15;95373.59;;;21.88;34.24